This is the latest recevied weather packets stored in our database for station/object WX5RP. If no packets are shown the sender has not sent any weather packets the latest 10 day(s).
| Time | Temp. | Humidity | Pressure | Rain* | Wind** | Luminosity | Snow |
|---|---|---|---|---|---|---|---|
| 1787882417 | 26.11° C | 22% | 1017 hPa | 0 mm | - | 29 W/m² | - |
| 1787881817 | 26.67° C | 22% | 1017 hPa | 0 mm | - | 31 W/m² | - |
| 1787881217 | 27.22° C | 21% | 1017 hPa | 0 mm | - | 32 W/m² | - |
| 1787880617 | 27.22° C | 24% | 1017.1 hPa | 0 mm | - | 33 W/m² | - |
| 1787880017 | 27.78° C | 22% | 1017 hPa | 0 mm | - | 53 W/m² | - |
| 1787879416 | 27.78° C | 22% | 1016.8 hPa | 0 mm | - | 58 W/m² | - |
| 1787878817 | 28.33° C | 21% | 1017 hPa | 0 mm | - | 151 W/m² | - |
| 1787878216 | 28.33° C | 21% | 1017.3 hPa | 0 mm | - | 198 W/m² | - |
| 1787877616 | 28.89° C | 22% | 1017.6 hPa | 0 mm | - | 235 W/m² | - |
| 1787877016 | 29.44° C | 20% | 1017.6 hPa | 0 mm | - | 367 W/m² | - |
| 1787876416 | 29.44° C | 21% | 1017.3 hPa | 0 mm | - | 402 W/m² | - |
| 1787875816 | 29.44° C | 20% | 1017.1 hPa | 0 mm | - | 434 W/m² | - |
| 1787875216 | 29.44° C | 20% | 1016.8 hPa | 0 mm | - | 464 W/m² | - |
| 1787874616 | 29.44° C | 20% | 1016.8 hPa | 0 mm | - | 497 W/m² | - |
| 1787874016 | 30° C | 23% | 1017.7 hPa | 0 mm | - | 531 W/m² | - |
| 1787873416 | 29.44° C | 25% | 1017.5 hPa | 0 mm | - | 559 W/m² | - |
| 1787872816 | 29.44° C | 20% | 1017.6 hPa | 0 mm | - | 586 W/m² | - |
| 1787872216 | 29.44° C | 19% | 1017.6 hPa | 0 mm | - | 614 W/m² | - |
| 1787871616 | 29.44° C | 20% | 1017.9 hPa | 0 mm | - | 642 W/m² | - |
| 1787871016 | 29.44° C | 23% | 1017.9 hPa | 0 mm | - | 665 W/m² | - |
| 1787870416 | 29.44° C | 18% | 1018.1 hPa | 0 mm | - | 706 W/m² | - |
| 1787869816 | 29.44° C | 20% | 1018.2 hPa | 0 mm | - | 729 W/m² | - |
| 1787869216 | 29.44° C | 19% | 1018.4 hPa | 0 mm | - | 663 W/m² | - |
| 1787868616 | 28.89° C | 23% | 1018.5 hPa | 0 mm | - | 826 W/m² | - |
| 1787868016 | 27.78° C | 23% | 1018.2 hPa | 0 mm | - | 300 W/m² | - |
* Rain latest hour (hover to see other rain measurements)
** Current wind speed in m/s (hover to see current wind gust speed)